Normed Antwerpen — V2DG9 — position and weather

sailwx.info

Track history (hours):
 
Tides and Currents Weather Stations Pressure Air Temp Water Temp Dewpoint Dewpoint Depression Visibility Wind Speed Wind Dir Waves Ship Positions

Normed Antwerpen

Last reported at 2016-Jul-26 21:32 UTC. Time now 2016-Jul-26 21:51 UTC.
Position N 39°05' W 010°07'.

Length 130 m; draft 6.2 m.

Type: Ship. MMSI: 305210993.

Date/timePositionNaut miles runAvg speedWind from/ knotsBaromVisibWave heightAir tempDewpointWater temp
2016-Jul-26 21:32N 39°05' W 010°07'49511.7
2016-Jul-25 03:12N 46°11' W 004°24'3913.0
2016-Jul-25 00:14N 46°33' W 003°38'1013.5
2016-Jul-24 23:31N 46°39' W 003°26'1413.1
2016-Jul-24 22:29N 46°46' W 003°09'1213.4
2016-Jul-24 21:33N 46°53' W 002°55'1313.3
2016-Jul-24 20:34N 47°01' W 002°39'1313.1
2016-Jul-24 19:33N 47°07' W 002°22'1111.1
2016-Jul-24 18:33N 47°16' W 002°12'1 1.0
2016-Jul-24 17:33N 47°17' W 002°12'0 0.0
2016-Jul-24 16:32N 47°17' W 002°12'0 0.0
2016-Jul-24 15:32N 47°17' W 002°12'0 0.0
2016-Jul-24 14:28N 47°17' W 002°12'0 0.0
2016-Jul-24 13:28N 47°17' W 002°12'0 0.0
2016-Jul-24 12:33N 47°17' W 002°12'0 0.0
2016-Jul-24 11:30N 47°17' W 002°12'0 0.0
2016-Jul-24 10:33N 47°17' W 002°12'0 0.0
2016-Jul-24 09:32N 47°17' W 002°12'0 0.0
2016-Jul-24 08:32N 47°17' W 002°12'0 0.0
2016-Jul-24 07:31N 47°17' W 002°12'0 0.0
2016-Jul-24 06:31N 47°17' W 002°12'0 0.0
2016-Jul-24 05:33N 47°17' W 002°12'0 0.0
2016-Jul-24 04:33N 47°17' W 002°12'0 0.0
2016-Jul-24 03:33N 47°17' W 002°12'0 0.0
2016-Jul-24 02:18N 47°17' W 002°12'0 0.0
2016-Jul-24 01:32N 47°17' W 002°12'0 0.0
2016-Jul-24 00:31N 47°17' W 002°12'0 0.0
2016-Jul-23 23:28N 47°17' W 002°12'0 0.0
2016-Jul-23 22:33N 47°17' W 002°12'0 0.0
2016-Jul-23 21:33N 47°17' W 002°12'0 0.0
2016-Jul-23 20:32N 47°17' W 002°12'0 0.0
2016-Jul-23 19:32N 47°17' W 002°12'0 0.0
2016-Jul-23 18:32N 47°17' W 002°12'0 0.0
2016-Jul-23 17:16N 47°17' W 002°12'0 0.0
2016-Jul-23 16:31N 47°17' W 002°12'0 0.0
2016-Jul-23 14:15N 47°17' W 002°12'0 0.0
2016-Jul-23 13:26N 47°17' W 002°12'0 0.0
2016-Jul-23 11:16N 47°17' W 002°12'1 0.1
2016-Jul-23 06:29N 47°17' W 002°12'11 5.7
2016-Jul-23 04:34N 47°08' W 002°21'10 9.5
2016-Jul-23 03:33N 47°02' W 002°32'1110.6
2016-Jul-23 02:33N 47°03' W 002°48'1414.1
2016-Jul-23 01:33N 47°09' W 003°06'1514.7
2016-Jul-23 00:33N 47°17' W 003°25'1414.2
2016-Jul-22 23:33N 47°23' W 003°43'1414.2
2016-Jul-22 22:33N 47°30' W 004°02'3414.7
2016-Jul-22 20:14N 47°47' W 004°46'1015.2
2016-Jul-22 19:33N 47°52' W 004°60'2214.7
2016-Jul-22 18:03N 48°06' W 005°25'11011.5
2016-Jul-22 08:26N 49°41' W 004°01'1212.8
2016-Jul-22 07:32N 49°48' W 003°46'2613.1
2016-Jul-22 05:33N 50°03' W 003°14'1514.8
2016-Jul-22 04:33N 50°11' W 002°55'1616.1
2016-Jul-22 03:33N 50°19' W 002°33'3417.1
2016-Jul-22 01:33N 50°36' W 001°46'1716.6
2016-Jul-22 00:33N 50°45' W 001°24'8 8.3
2016-Jul-21 23:33N 50°53' W 001°24'1 0.1
2016-Jul-21 07:29N 50°54' W 001°25'2 2.7
2016-Jul-21 06:33N 50°52' W 001°22'10 9.9
2016-Jul-21 05:34N 50°46' W 001°10'1010.1
2016-Jul-21 04:34N 50°41' W 000°57'10 9.7
2016-Jul-21 03:32N 50°35' W 000°44'9 8.9
2016-Jul-21 02:33N 50°40' W 000°55'1111.2
2016-Jul-21 01:33N 50°37' W 000°38'1212.0
2016-Jul-21 00:33N 50°34' W 000°20'1110.6
2016-Jul-20 23:33N 50°32' W 000°03'10 9.6
2016-Jul-20 22:33N 50°34' E 000°11'9 9.3
2016-Jul-20 21:33N 50°37' E 000°26'10 9.3
2016-Jul-20 20:30N 50°41' E 000°39'1111.1
2016-Jul-20 19:33N 50°47' E 000°53'1512.5
2016-Jul-20 18:21N 50°56' E 001°12'1113.4
2016-Jul-20 17:33N 51°03' E 001°25'1212.2
2016-Jul-20 16:33N 51°11' E 001°39'1110.7
2016-Jul-20 15:33N 51°18' E 001°51'9 9.2
2016-Jul-20 14:33N 51°24' E 002°02'1111.2
2016-Jul-20 13:33N 51°21' E 002°19'1110.4
2016-Jul-20 12:32N 51°23' E 002°36'1111.5
2016-Jul-20 11:32N 51°23' E 002°54'1111.4
2016-Jul-20 10:33N 51°24' E 003°12'1212.4
2016-Jul-20 09:34N 51°26' E 003°32'1010.0
2016-Jul-20 08:33N 51°22' E 003°47'1010.1
2016-Jul-20 07:33N 51°24' E 004°02'1110.6
2016-Jul-20 06:34N 51°19' E 004°16'3 2.9
2016-Jul-20 05:34N 51°17' E 004°20'3 3.3
2016-Jul-20 04:34N 51°15' E 004°24'0 0.4
2016-Jul-20 03:31N 51°15' E 004°24'0 0.0
2016-Jul-20 02:31N 51°15' E 004°24'0 0.0
2016-Jul-20 01:33N 51°15' E 004°24'0 0.0
2016-Jul-20 00:33N 51°15' E 004°24'0 0.0
2016-Jul-19 23:33N 51°15' E 004°24'0 0.0
2016-Jul-19 22:32N 51°15' E 004°24'0 0.0
2016-Jul-19 21:32N 51°15' E 004°24'0 0.0
2016-Jul-19 20:31N 51°15' E 004°24'0 0.0
2016-Jul-19 19:31N 51°15' E 004°24'0 0.0
2016-Jul-19 18:33N 51°15' E 004°24'0 0.0
2016-Jul-19 17:33N 51°15' E 004°24'0 0.0
2016-Jul-19 16:33N 51°15' E 004°24'0 0.0
2016-Jul-19 15:32N 51°15' E 004°24'0 0.0
2016-Jul-19 14:32N 51°15' E 004°24'0 0.0
2016-Jul-19 13:31N 51°15' E 004°24'0 0.0
2016-Jul-19 12:31N 51°15' E 004°24'0 0.0
2016-Jul-19 11:33N 51°15' E 004°24'0 0.0
2016-Jul-19 10:33N 51°15' E 004°24'0 0.0
2016-Jul-19 09:32N 51°15' E 004°24'0 0.0
2016-Jul-19 08:32N 51°15' E 004°24'0 0.0
2016-Jul-19 07:32N 51°15' E 004°24'0 0.0
2016-Jul-19 04:33N 51°15' E 004°24'0 0.0
2016-Jul-19 03:33N 51°15' E 004°24'0 0.0
2016-Jul-19 02:32N 51°15' E 004°24'0 0.0
2016-Jul-19 01:32N 51°15' E 004°24'0 0.0
2016-Jul-19 00:32N 51°15' E 004°24'0 0.0
2016-Jul-18 23:31N 51°15' E 004°24'0 0.0
2016-Jul-18 22:31N 51°15' E 004°24'0 0.0
2016-Jul-18 21:33N 51°15' E 004°24'0 0.0
2016-Jul-18 20:33N 51°15' E 004°24'0 0.0
2016-Jul-18 19:32N 51°15' E 004°24'0 0.0
2016-Jul-18 18:32N 51°15' E 004°24'0 0.0
2016-Jul-18 17:32N 51°15' E 004°24'0 0.0
2016-Jul-18 16:31N 51°15' E 004°24'0 0.0
2016-Jul-18 15:31N 51°15' E 004°24'0 0.0
2016-Jul-18 14:33N 51°15' E 004°24'0 0.0
2016-Jul-18 13:33N 51°15' E 004°24'0 0.0
2016-Jul-18 12:32N 51°15' E 004°24'0 0.0
2016-Jul-18 11:32N 51°15' E 004°24'0 0.0
2016-Jul-18 10:32N 51°15' E 004°24'0 0.0
2016-Jul-18 09:31N 51°15' E 004°24'0 0.0
2016-Jul-18 08:31N 51°15' E 004°24'0 0.0
2016-Jul-18 07:33N 51°15' E 004°24'0 0.0
2016-Jul-18 06:33N 51°15' E 004°24'0 0.0
2016-Jul-18 05:32N 51°15' E 004°24'0 0.0
2016-Jul-18 04:32N 51°15' E 004°24'0 0.0
2016-Jul-18 03:32N 51°15' E 004°24'0 0.0
2016-Jul-18 02:31N 51°15' E 004°24'0 0.0
2016-Jul-18 01:31N 51°15' E 004°24'0 0.0
2016-Jul-18 00:33N 51°15' E 004°24'0 0.0
2016-Jul-17 23:30N 51°15' E 004°24'0 0.0
2016-Jul-17 22:32N 51°15' E 004°24'0 0.0
2016-Jul-17 21:32N 51°15' E 004°24'0 0.0
2016-Jul-17 20:32N 51°15' E 004°24'0 0.0
2016-Jul-17 19:31N 51°15' E 004°24'0 0.0
2016-Jul-17 18:31N 51°15' E 004°24'0 0.0
2016-Jul-17 17:33N 51°15' E 004°24'0 0.0
2016-Jul-17 16:33N 51°15' E 004°24'0 0.0
2016-Jul-17 15:32N 51°15' E 004°24'0 0.0
2016-Jul-17 14:32N 51°15' E 004°24'0 0.0
2016-Jul-17 13:32N 51°15' E 004°24'0 0.0
2016-Jul-17 12:31N 51°15' E 004°24'0 0.0
2016-Jul-17 11:31N 51°15' E 004°24'0 0.0
2016-Jul-17 10:33N 51°15' E 004°24'0 0.0
2016-Jul-17 09:33N 51°15' E 004°24'0 0.0
2016-Jul-17 08:32N 51°15' E 004°24'0 0.0
2016-Jul-17 07:32N 51°15' E 004°24'0 0.0
2016-Jul-17 06:31N 51°15' E 004°24'0 0.0
2016-Jul-17 04:31N 51°15' E 004°24'0 0.0
2016-Jul-17 03:33N 51°15' E 004°24'0 0.0
2016-Jul-17 02:33N 51°15' E 004°24'0 0.0
2016-Jul-17 01:32N 51°15' E 004°24'0 0.0
2016-Jul-17 00:32N 51°15' E 004°24'0 0.0
2016-Jul-16 23:31N 51°15' E 004°24'0 0.0
2016-Jul-16 22:31N 51°15' E 004°24'  
Track history (hours):
 
Tides and Currents Weather Stations Pressure Air Temp Water Temp Dewpoint Dewpoint Depression Visibility Wind Speed Wind Dir Waves Ship Positions

Normed Antwerpen

Last reported at 2016-Jul-26 21:32 UTC. Time now 2016-Jul-26 21:51 UTC.
Position N 39°05' W 010°07'.

Length 130 m; draft 6.2 m.

Type: Ship. MMSI: 305210993.

Date/timePositionNaut miles runAvg speedWind from/ knotsBaromVisibWave heightAir tempDewpointWater temp
2016-Jul-26 21:32N 39°05' W 010°07'49511.7
2016-Jul-25 03:12N 46°11' W 004°24'3913.0
2016-Jul-25 00:14N 46°33' W 003°38'1013.5
2016-Jul-24 23:31N 46°39' W 003°26'1413.1
2016-Jul-24 22:29N 46°46' W 003°09'1213.4
2016-Jul-24 21:33N 46°53' W 002°55'1313.3
2016-Jul-24 20:34N 47°01' W 002°39'1313.1
2016-Jul-24 19:33N 47°07' W 002°22'1111.1
2016-Jul-24 18:33N 47°16' W 002°12'1 1.0
2016-Jul-24 17:33N 47°17' W 002°12'0 0.0
2016-Jul-24 16:32N 47°17' W 002°12'0 0.0
2016-Jul-24 15:32N 47°17' W 002°12'0 0.0
2016-Jul-24 14:28N 47°17' W 002°12'0 0.0
2016-Jul-24 13:28N 47°17' W 002°12'0 0.0
2016-Jul-24 12:33N 47°17' W 002°12'0 0.0
2016-Jul-24 11:30N 47°17' W 002°12'0 0.0
2016-Jul-24 10:33N 47°17' W 002°12'0 0.0
2016-Jul-24 09:32N 47°17' W 002°12'0 0.0
2016-Jul-24 08:32N 47°17' W 002°12'0 0.0
2016-Jul-24 07:31N 47°17' W 002°12'0 0.0
2016-Jul-24 06:31N 47°17' W 002°12'0 0.0
2016-Jul-24 05:33N 47°17' W 002°12'0 0.0
2016-Jul-24 04:33N 47°17' W 002°12'0 0.0
2016-Jul-24 03:33N 47°17' W 002°12'0 0.0
2016-Jul-24 02:18N 47°17' W 002°12'0 0.0
2016-Jul-24 01:32N 47°17' W 002°12'0 0.0
2016-Jul-24 00:31N 47°17' W 002°12'0 0.0
2016-Jul-23 23:28N 47°17' W 002°12'0 0.0
2016-Jul-23 22:33N 47°17' W 002°12'0 0.0
2016-Jul-23 21:33N 47°17' W 002°12'0 0.0
2016-Jul-23 20:32N 47°17' W 002°12'0 0.0
2016-Jul-23 19:32N 47°17' W 002°12'0 0.0
2016-Jul-23 18:32N 47°17' W 002°12'0 0.0
2016-Jul-23 17:16N 47°17' W 002°12'0 0.0
2016-Jul-23 16:31N 47°17' W 002°12'0 0.0
2016-Jul-23 14:15N 47°17' W 002°12'0 0.0
2016-Jul-23 13:26N 47°17' W 002°12'0 0.0
2016-Jul-23 11:16N 47°17' W 002°12'1 0.1
2016-Jul-23 06:29N 47°17' W 002°12'11 5.7
2016-Jul-23 04:34N 47°08' W 002°21'10 9.5
2016-Jul-23 03:33N 47°02' W 002°32'1110.6
2016-Jul-23 02:33N 47°03' W 002°48'1414.1
2016-Jul-23 01:33N 47°09' W 003°06'1514.7
2016-Jul-23 00:33N 47°17' W 003°25'1414.2
2016-Jul-22 23:33N 47°23' W 003°43'1414.2
2016-Jul-22 22:33N 47°30' W 004°02'3414.7
2016-Jul-22 20:14N 47°47' W 004°46'1015.2
2016-Jul-22 19:33N 47°52' W 004°60'2214.7
2016-Jul-22 18:03N 48°06' W 005°25'11011.5
2016-Jul-22 08:26N 49°41' W 004°01'1212.8
2016-Jul-22 07:32N 49°48' W 003°46'2613.1
2016-Jul-22 05:33N 50°03' W 003°14'1514.8
2016-Jul-22 04:33N 50°11' W 002°55'1616.1
2016-Jul-22 03:33N 50°19' W 002°33'3417.1
2016-Jul-22 01:33N 50°36' W 001°46'1716.6
2016-Jul-22 00:33N 50°45' W 001°24'8 8.3
2016-Jul-21 23:33N 50°53' W 001°24'1 0.1
2016-Jul-21 07:29N 50°54' W 001°25'2 2.7
2016-Jul-21 06:33N 50°52' W 001°22'10 9.9
2016-Jul-21 05:34N 50°46' W 001°10'1010.1
2016-Jul-21 04:34N 50°41' W 000°57'10 9.7
2016-Jul-21 03:32N 50°35' W 000°44'9 8.9
2016-Jul-21 02:33N 50°40' W 000°55'1111.2
2016-Jul-21 01:33N 50°37' W 000°38'1212.0
2016-Jul-21 00:33N 50°34' W 000°20'1110.6
2016-Jul-20 23:33N 50°32' W 000°03'10 9.6
2016-Jul-20 22:33N 50°34' E 000°11'9 9.3
2016-Jul-20 21:33N 50°37' E 000°26'10 9.3
2016-Jul-20 20:30N 50°41' E 000°39'1111.1
2016-Jul-20 19:33N 50°47' E 000°53'1512.5
2016-Jul-20 18:21N 50°56' E 001°12'1113.4
2016-Jul-20 17:33N 51°03' E 001°25'1212.2
2016-Jul-20 16:33N 51°11' E 001°39'1110.7
2016-Jul-20 15:33N 51°18' E 001°51'9 9.2
2016-Jul-20 14:33N 51°24' E 002°02'1111.2
2016-Jul-20 13:33N 51°21' E 002°19'1110.4
2016-Jul-20 12:32N 51°23' E 002°36'1111.5
2016-Jul-20 11:32N 51°23' E 002°54'1111.4
2016-Jul-20 10:33N 51°24' E 003°12'1212.4
2016-Jul-20 09:34N 51°26' E 003°32'1010.0
2016-Jul-20 08:33N 51°22' E 003°47'1010.1
2016-Jul-20 07:33N 51°24' E 004°02'1110.6
2016-Jul-20 06:34N 51°19' E 004°16'3 2.9
2016-Jul-20 05:34N 51°17' E 004°20'3 3.3
2016-Jul-20 04:34N 51°15' E 004°24'0 0.4
2016-Jul-20 03:31N 51°15' E 004°24'0 0.0
2016-Jul-20 02:31N 51°15' E 004°24'0 0.0
2016-Jul-20 01:33N 51°15' E 004°24'0 0.0
2016-Jul-20 00:33N 51°15' E 004°24'0 0.0
2016-Jul-19 23:33N 51°15' E 004°24'0 0.0
2016-Jul-19 22:32N 51°15' E 004°24'0 0.0
2016-Jul-19 21:32N 51°15' E 004°24'0 0.0
2016-Jul-19 20:31N 51°15' E 004°24'0 0.0
2016-Jul-19 19:31N 51°15' E 004°24'0 0.0
2016-Jul-19 18:33N 51°15' E 004°24'0 0.0
2016-Jul-19 17:33N 51°15' E 004°24'0 0.0
2016-Jul-19 16:33N 51°15' E 004°24'0 0.0
2016-Jul-19 15:32N 51°15' E 004°24'0 0.0
2016-Jul-19 14:32N 51°15' E 004°24'0 0.0
2016-Jul-19 13:31N 51°15' E 004°24'0 0.0
2016-Jul-19 12:31N 51°15' E 004°24'0 0.0
2016-Jul-19 11:33N 51°15' E 004°24'0 0.0
2016-Jul-19 10:33N 51°15' E 004°24'0 0.0
2016-Jul-19 09:32N 51°15' E 004°24'0 0.0
2016-Jul-19 08:32N 51°15' E 004°24'0 0.0
2016-Jul-19 07:32N 51°15' E 004°24'0 0.0
2016-Jul-19 04:33N 51°15' E 004°24'0 0.0
2016-Jul-19 03:33N 51°15' E 004°24'0 0.0
2016-Jul-19 02:32N 51°15' E 004°24'0 0.0
2016-Jul-19 01:32N 51°15' E 004°24'0 0.0
2016-Jul-19 00:32N 51°15' E 004°24'0 0.0
2016-Jul-18 23:31N 51°15' E 004°24'0 0.0
2016-Jul-18 22:31N 51°15' E 004°24'0 0.0
2016-Jul-18 21:33N 51°15' E 004°24'0 0.0
2016-Jul-18 20:33N 51°15' E 004°24'0 0.0
2016-Jul-18 19:32N 51°15' E 004°24'0 0.0
2016-Jul-18 18:32N 51°15' E 004°24'0 0.0
2016-Jul-18 17:32N 51°15' E 004°24'0 0.0
2016-Jul-18 16:31N 51°15' E 004°24'0 0.0
2016-Jul-18 15:31N 51°15' E 004°24'0 0.0
2016-Jul-18 14:33N 51°15' E 004°24'0 0.0
2016-Jul-18 13:33N 51°15' E 004°24'0 0.0
2016-Jul-18 12:32N 51°15' E 004°24'0 0.0
2016-Jul-18 11:32N 51°15' E 004°24'0 0.0
2016-Jul-18 10:32N 51°15' E 004°24'0 0.0
2016-Jul-18 09:31N 51°15' E 004°24'0 0.0
2016-Jul-18 08:31N 51°15' E 004°24'0 0.0
2016-Jul-18 07:33N 51°15' E 004°24'0 0.0
2016-Jul-18 06:33N 51°15' E 004°24'0 0.0
2016-Jul-18 05:32N 51°15' E 004°24'0 0.0
2016-Jul-18 04:32N 51°15' E 004°24'0 0.0
2016-Jul-18 03:32N 51°15' E 004°24'0 0.0
2016-Jul-18 02:31N 51°15' E 004°24'0 0.0
2016-Jul-18 01:31N 51°15' E 004°24'0 0.0
2016-Jul-18 00:33N 51°15' E 004°24'0 0.0
2016-Jul-17 23:30N 51°15' E 004°24'0 0.0
2016-Jul-17 22:32N 51°15' E 004°24'0 0.0
2016-Jul-17 21:32N 51°15' E 004°24'0 0.0
2016-Jul-17 20:32N 51°15' E 004°24'0 0.0
2016-Jul-17 19:31N 51°15' E 004°24'0 0.0
2016-Jul-17 18:31N 51°15' E 004°24'0 0.0
2016-Jul-17 17:33N 51°15' E 004°24'0 0.0
2016-Jul-17 16:33N 51°15' E 004°24'0 0.0
2016-Jul-17 15:32N 51°15' E 004°24'0 0.0
2016-Jul-17 14:32N 51°15' E 004°24'0 0.0
2016-Jul-17 13:32N 51°15' E 004°24'0 0.0
2016-Jul-17 12:31N 51°15' E 004°24'0 0.0
2016-Jul-17 11:31N 51°15' E 004°24'0 0.0
2016-Jul-17 10:33N 51°15' E 004°24'0 0.0
2016-Jul-17 09:33N 51°15' E 004°24'0 0.0
2016-Jul-17 08:32N 51°15' E 004°24'0 0.0
2016-Jul-17 07:32N 51°15' E 004°24'0 0.0
2016-Jul-17 06:31N 51°15' E 004°24'0 0.0
2016-Jul-17 04:31N 51°15' E 004°24'0 0.0
2016-Jul-17 03:33N 51°15' E 004°24'0 0.0
2016-Jul-17 02:33N 51°15' E 004°24'0 0.0
2016-Jul-17 01:32N 51°15' E 004°24'0 0.0
2016-Jul-17 00:32N 51°15' E 004°24'0 0.0
2016-Jul-16 23:31N 51°15' E 004°24'0 0.0
2016-Jul-16 22:31N 51°15' E 004°24'  

Dump ship's entire track history